sensor_id;sensor_type;location;lat;lon;timestamp;temperature;humidity
22968;DHT22;11650;48.106;-1.696;2022-07-23T00:01:28;15.90;99.90
22968;DHT22;11650;48.106;-1.696;2022-07-23T00:03:54;15.90;99.90
22968;DHT22;11650;48.106;-1.696;2022-07-23T00:06:21;16.00;99.90
22968;DHT22;11650;48.106;-1.696;2022-07-23T00:08:47;15.80;99.90
22968;DHT22;11650;48.106;-1.696;2022-07-23T00:11:13;15.80;99.90
22968;DHT22;11650;48.106;-1.696;2022-07-23T00:13:39;15.80;99.90
22968;DHT22;11650;48.106;-1.696;2022-07-23T00:16:04;15.80;99.90
22968;DHT22;11650;48.106;-1.696;2022-07-23T00:18:30;15.80;99.90
22968;DHT22;11650;48.106;-1.696;2022-07-23T00:20:56;15.70;99.90
22968;DHT22;11650;48.106;-1.696;2022-07-23T00:23:22;15.60;99.90
22968;DHT22;11650;48.106;-1.696;2022-07-23T00:25:47;15.60;99.90
22968;DHT22;11650;48.106;-1.696;2022-07-23T00:28:13;15.60;99.90
22968;DHT22;11650;48.106;-1.696;2022-07-23T00:30:39;15.60;99.90
22968;DHT22;11650;48.106;-1.696;2022-07-23T00:33:06;15.50;99.90
22968;DHT22;11650;48.106;-1.696;2022-07-23T00:35:35;15.50;99.90
22968;DHT22;11650;48.106;-1.696;2022-07-23T00:38:02;15.50;99.90
22968;DHT22;11650;48.106;-1.696;2022-07-23T00:40:29;15.50;99.90
22968;DHT22;11650;48.106;-1.696;2022-07-23T00:42:55;15.50;99.90
22968;DHT22;11650;48.106;-1.696;2022-07-23T00:45:20;15.40;99.90
22968;DHT22;11650;48.106;-1.696;2022-07-23T00:47:46;15.40;99.90
22968;DHT22;11650;48.106;-1.696;2022-07-23T00:50:12;15.30;99.90
22968;DHT22;11650;48.106;-1.696;2022-07-23T00:52:39;15.30;99.90
22968;DHT22;11650;48.106;-1.696;2022-07-23T00:55:06;15.20;99.90
22968;DHT22;11650;48.106;-1.696;2022-07-23T00:57:32;15.20;99.90
22968;DHT22;11650;48.106;-1.696;2022-07-23T00:59:58;15.20;99.90
22968;DHT22;11650;48.106;-1.696;2022-07-23T01:02:25;15.20;99.90
22968;DHT22;11650;48.106;-1.696;2022-07-23T01:04:51;15.20;99.90
22968;DHT22;11650;48.106;-1.696;2022-07-23T01:07:18;15.20;99.90
22968;DHT22;11650;48.106;-1.696;2022-07-23T01:09:44;15.20;99.90
22968;DHT22;11650;48.106;-1.696;2022-07-23T01:12:11;15.20;99.90
22968;DHT22;11650;48.106;-1.696;2022-07-23T01:14:37;15.20;99.90
22968;DHT22;11650;48.106;-1.696;2022-07-23T01:17:03;15.20;99.90
22968;DHT22;11650;48.106;-1.696;2022-07-23T01:19:29;15.10;99.90
22968;DHT22;11650;48.106;-1.696;2022-07-23T01:21:57;15.10;99.90
22968;DHT22;11650;48.106;-1.696;2022-07-23T01:24:23;15.10;99.90
22968;DHT22;11650;48.106;-1.696;2022-07-23T01:26:49;15.10;99.90
22968;DHT22;11650;48.106;-1.696;2022-07-23T01:29:16;15.00;99.90
22968;DHT22;11650;48.106;-1.696;2022-07-23T01:31:42;15.00;99.90
22968;DHT22;11650;48.106;-1.696;2022-07-23T01:34:08;15.00;99.90
22968;DHT22;11650;48.106;-1.696;2022-07-23T01:36:35;14.90;99.90
22968;DHT22;11650;48.106;-1.696;2022-07-23T01:39:02;14.90;99.90
22968;DHT22;11650;48.106;-1.696;2022-07-23T01:41:28;14.90;99.90
22968;DHT22;11650;48.106;-1.696;2022-07-23T01:43:53;14.80;99.90
22968;DHT22;11650;48.106;-1.696;2022-07-23T01:46:19;14.80;99.90
22968;DHT22;11650;48.106;-1.696;2022-07-23T01:48:44;14.80;99.90
22968;DHT22;11650;48.106;-1.696;2022-07-23T01:51:10;14.70;99.90
22968;DHT22;11650;48.106;-1.696;2022-07-23T01:53:36;14.80;99.90
22968;DHT22;11650;48.106;-1.696;2022-07-23T01:56:02;14.70;99.90
22968;DHT22;11650;48.106;-1.696;2022-07-23T01:58:28;14.70;99.90
22968;DHT22;11650;48.106;-1.696;2022-07-23T02:00:54;14.70;99.90
22968;DHT22;11650;48.106;-1.696;2022-07-23T02:03:21;14.70;99.90
22968;DHT22;11650;48.106;-1.696;2022-07-23T02:05:46;14.70;99.90
22968;DHT22;11650;48.106;-1.696;2022-07-23T02:08:12;14.60;99.90
22968;DHT22;11650;48.106;-1.696;2022-07-23T02:10:38;14.60;99.90
22968;DHT22;11650;48.106;-1.696;2022-07-23T02:13:04;14.60;99.90
22968;DHT22;11650;48.106;-1.696;2022-07-23T02:15:29;14.60;99.90
22968;DHT22;11650;48.106;-1.696;2022-07-23T02:17:55;14.50;99.90
22968;DHT22;11650;48.106;-1.696;2022-07-23T02:20:22;14.50;99.90
22968;DHT22;11650;48.106;-1.696;2022-07-23T02:22:48;14.50;99.90
22968;DHT22;11650;48.106;-1.696;2022-07-23T02:25:13;14.40;99.90
22968;DHT22;11650;48.106;-1.696;2022-07-23T02:27:39;14.40;99.90
22968;DHT22;11650;48.106;-1.696;2022-07-23T02:30:05;14.40;99.90
22968;DHT22;11650;48.106;-1.696;2022-07-23T02:32:31;14.50;99.90
22968;DHT22;11650;48.106;-1.696;2022-07-23T02:34:57;14.50;99.90
22968;DHT22;11650;48.106;-1.696;2022-07-23T02:37:23;14.40;99.90
22968;DHT22;11650;48.106;-1.696;2022-07-23T02:39:48;14.40;99.90
22968;DHT22;11650;48.106;-1.696;2022-07-23T02:42:15;14.50;99.90
22968;DHT22;11650;48.106;-1.696;2022-07-23T02:44:40;14.40;99.90
22968;DHT22;11650;48.106;-1.696;2022-07-23T02:47:06;14.40;99.90
22968;DHT22;11650;48.106;-1.696;2022-07-23T02:49:32;14.40;99.90
22968;DHT22;11650;48.106;-1.696;2022-07-23T02:51:58;14.40;99.90
22968;DHT22;11650;48.106;-1.696;2022-07-23T02:54:23;14.40;99.90
22968;DHT22;11650;48.106;-1.696;2022-07-23T02:56:49;14.40;99.90
22968;DHT22;11650;48.106;-1.696;2022-07-23T02:59:17;14.40;99.90
22968;DHT22;11650;48.106;-1.696;2022-07-23T03:01:43;14.40;99.90
22968;DHT22;11650;48.106;-1.696;2022-07-23T03:04:08;14.40;99.90
22968;DHT22;11650;48.106;-1.696;2022-07-23T03:06:34;14.40;99.90
22968;DHT22;11650;48.106;-1.696;2022-07-23T03:09:00;14.40;99.90
22968;DHT22;11650;48.106;-1.696;2022-07-23T03:11:25;14.30;99.90
22968;DHT22;11650;48.106;-1.696;2022-07-23T03:13:51;14.40;99.90
22968;DHT22;11650;48.106;-1.696;2022-07-23T03:16:16;14.40;99.90
22968;DHT22;11650;48.106;-1.696;2022-07-23T03:18:42;14.30;99.90
22968;DHT22;11650;48.106;-1.696;2022-07-23T03:21:08;14.30;99.90
22968;DHT22;11650;48.106;-1.696;2022-07-23T03:23:34;14.30;99.90
22968;DHT22;11650;48.106;-1.696;2022-07-23T03:25:59;14.30;99.90
22968;DHT22;11650;48.106;-1.696;2022-07-23T03:28:25;14.30;99.90
22968;DHT22;11650;48.106;-1.696;2022-07-23T03:30:50;14.20;99.90
22968;DHT22;11650;48.106;-1.696;2022-07-23T03:33:18;14.20;99.90
22968;DHT22;11650;48.106;-1.696;2022-07-23T03:35:44;14.20;99.90
22968;DHT22;11650;48.106;-1.696;2022-07-23T03:38:10;14.20;99.90
22968;DHT22;11650;48.106;-1.696;2022-07-23T03:40:36;14.20;99.90
22968;DHT22;11650;48.106;-1.696;2022-07-23T03:43:02;14.20;99.90
22968;DHT22;11650;48.106;-1.696;2022-07-23T03:45:28;14.10;99.90
22968;DHT22;11650;48.106;-1.696;2022-07-23T03:47:53;14.10;99.90
22968;DHT22;11650;48.106;-1.696;2022-07-23T03:50:19;14.10;99.90
22968;DHT22;11650;48.106;-1.696;2022-07-23T03:52:45;14.10;99.90
22968;DHT22;11650;48.106;-1.696;2022-07-23T03:55:10;14.00;99.90
22968;DHT22;11650;48.106;-1.696;2022-07-23T03:57:36;14.00;99.90
22968;DHT22;11650;48.106;-1.696;2022-07-23T04:00:03;14.00;99.90
22968;DHT22;11650;48.106;-1.696;2022-07-23T04:02:31;14.00;99.90
22968;DHT22;11650;48.106;-1.696;2022-07-23T04:04:56;13.90;99.90
22968;DHT22;11650;48.106;-1.696;2022-07-23T04:07:22;13.90;99.90
22968;DHT22;11650;48.106;-1.696;2022-07-23T04:09:48;14.00;99.90
22968;DHT22;11650;48.106;-1.696;2022-07-23T04:12:14;13.90;99.90
22968;DHT22;11650;48.106;-1.696;2022-07-23T04:14:39;13.90;99.90
22968;DHT22;11650;48.106;-1.696;2022-07-23T04:17:05;13.90;99.90
22968;DHT22;11650;48.106;-1.696;2022-07-23T04:19:31;13.90;99.90
22968;DHT22;11650;48.106;-1.696;2022-07-23T04:21:57;13.90;99.90
22968;DHT22;11650;48.106;-1.696;2022-07-23T04:24:22;13.80;99.90
22968;DHT22;11650;48.106;-1.696;2022-07-23T04:26:48;13.70;99.90
22968;DHT22;11650;48.106;-1.696;2022-07-23T04:29:14;13.70;99.90
22968;DHT22;11650;48.106;-1.696;2022-07-23T04:31:39;13.70;99.90
22968;DHT22;11650;48.106;-1.696;2022-07-23T04:34:05;13.80;99.90
22968;DHT22;11650;48.106;-1.696;2022-07-23T04:36:31;13.80;99.90
22968;DHT22;11650;48.106;-1.696;2022-07-23T04:38:56;13.80;99.90
22968;DHT22;11650;48.106;-1.696;2022-07-23T04:41:22;13.80;99.90
22968;DHT22;11650;48.106;-1.696;2022-07-23T04:43:48;13.80;99.90
22968;DHT22;11650;48.106;-1.696;2022-07-23T04:46:13;13.70;99.90
22968;DHT22;11650;48.106;-1.696;2022-07-23T04:48:39;13.70;99.90
22968;DHT22;11650;48.106;-1.696;2022-07-23T04:51:05;13.70;99.90
22968;DHT22;11650;48.106;-1.696;2022-07-23T04:53:31;13.70;99.90
22968;DHT22;11650;48.106;-1.696;2022-07-23T04:55:57;13.80;99.90
22968;DHT22;11650;48.106;-1.696;2022-07-23T04:58:22;13.70;99.90
22968;DHT22;11650;48.106;-1.696;2022-07-23T05:00:48;13.70;99.90
22968;DHT22;11650;48.106;-1.696;2022-07-23T05:03:14;13.70;99.90
22968;DHT22;11650;48.106;-1.696;2022-07-23T05:05:39;13.80;99.90
22968;DHT22;11650;48.106;-1.696;2022-07-23T05:08:05;13.80;99.90
22968;DHT22;11650;48.106;-1.696;2022-07-23T05:10:31;13.80;99.90
22968;DHT22;11650;48.106;-1.696;2022-07-23T05:12:56;13.80;99.90
22968;DHT22;11650;48.106;-1.696;2022-07-23T05:15:23;13.80;99.90
22968;DHT22;11650;48.106;-1.696;2022-07-23T05:17:48;13.80;99.90
22968;DHT22;11650;48.106;-1.696;2022-07-23T05:20:14;13.90;99.90
22968;DHT22;11650;48.106;-1.696;2022-07-23T05:22:40;13.90;99.90
22968;DHT22;11650;48.106;-1.696;2022-07-23T05:25:06;13.90;99.90
22968;DHT22;11650;48.106;-1.696;2022-07-23T05:27:32;14.00;99.90
22968;DHT22;11650;48.106;-1.696;2022-07-23T05:29:58;14.00;99.90
22968;DHT22;11650;48.106;-1.696;2022-07-23T05:32:24;14.00;99.90
22968;DHT22;11650;48.106;-1.696;2022-07-23T05:34:49;14.10;99.90
22968;DHT22;11650;48.106;-1.696;2022-07-23T05:37:15;14.10;99.90
22968;DHT22;11650;48.106;-1.696;2022-07-23T05:39:41;14.20;99.90
22968;DHT22;11650;48.106;-1.696;2022-07-23T05:42:06;14.20;99.90
22968;DHT22;11650;48.106;-1.696;2022-07-23T05:44:33;14.20;99.90
22968;DHT22;11650;48.106;-1.696;2022-07-23T05:46:58;14.40;99.90
22968;DHT22;11650;48.106;-1.696;2022-07-23T05:49:24;14.40;99.90
22968;DHT22;11650;48.106;-1.696;2022-07-23T05:51:50;14.50;99.90
22968;DHT22;11650;48.106;-1.696;2022-07-23T05:54:15;14.50;99.90
22968;DHT22;11650;48.106;-1.696;2022-07-23T05:56:41;14.60;99.90
22968;DHT22;11650;48.106;-1.696;2022-07-23T05:59:07;14.50;99.90
22968;DHT22;11650;48.106;-1.696;2022-07-23T06:01:32;14.60;99.90
22968;DHT22;11650;48.106;-1.696;2022-07-23T06:03:58;14.70;99.90
22968;DHT22;11650;48.106;-1.696;2022-07-23T06:06:23;14.80;99.90
22968;DHT22;11650;48.106;-1.696;2022-07-23T06:08:49;14.80;99.90
22968;DHT22;11650;48.106;-1.696;2022-07-23T06:11:15;14.80;99.90
22968;DHT22;11650;48.106;-1.696;2022-07-23T06:13:40;14.90;99.90
22968;DHT22;11650;48.106;-1.696;2022-07-23T06:16:06;14.90;99.90
22968;DHT22;11650;48.106;-1.696;2022-07-23T06:18:31;15.00;99.90
22968;DHT22;11650;48.106;-1.696;2022-07-23T06:20:57;15.00;99.90
22968;DHT22;11650;48.106;-1.696;2022-07-23T06:23:23;15.10;99.90
22968;DHT22;11650;48.106;-1.696;2022-07-23T06:25:48;15.20;99.90
22968;DHT22;11650;48.106;-1.696;2022-07-23T06:28:14;15.40;99.90
22968;DHT22;11650;48.106;-1.696;2022-07-23T06:30:40;15.30;99.90
22968;DHT22;11650;48.106;-1.696;2022-07-23T06:33:06;15.40;99.90
22968;DHT22;11650;48.106;-1.696;2022-07-23T06:35:32;15.50;99.90
22968;DHT22;11650;48.106;-1.696;2022-07-23T06:37:59;15.70;99.90
22968;DHT22;11650;48.106;-1.696;2022-07-23T06:40:24;15.60;99.90
22968;DHT22;11650;48.106;-1.696;2022-07-23T06:42:50;15.70;99.90
22968;DHT22;11650;48.106;-1.696;2022-07-23T06:45:16;15.70;99.90
22968;DHT22;11650;48.106;-1.696;2022-07-23T06:47:42;15.80;99.90
22968;DHT22;11650;48.106;-1.696;2022-07-23T06:50:08;15.80;99.90
22968;DHT22;11650;48.106;-1.696;2022-07-23T06:52:34;15.90;99.90
22968;DHT22;11650;48.106;-1.696;2022-07-23T06:54:59;16.00;99.90
22968;DHT22;11650;48.106;-1.696;2022-07-23T06:57:25;16.10;99.90
22968;DHT22;11650;48.106;-1.696;2022-07-23T06:59:51;16.10;99.90
22968;DHT22;11650;48.106;-1.696;2022-07-23T07:02:17;16.30;99.90
22968;DHT22;11650;48.106;-1.696;2022-07-23T07:04:42;16.30;99.90
22968;DHT22;11650;48.106;-1.696;2022-07-23T07:07:08;16.30;99.90
22968;DHT22;11650;48.106;-1.696;2022-07-23T07:09:33;16.50;99.90
22968;DHT22;11650;48.106;-1.696;2022-07-23T07:11:59;16.50;99.90
22968;DHT22;11650;48.106;-1.696;2022-07-23T07:14:25;16.50;99.90
22968;DHT22;11650;48.106;-1.696;2022-07-23T07:16:50;16.60;99.90
22968;DHT22;11650;48.106;-1.696;2022-07-23T07:19:16;16.50;99.90
22968;DHT22;11650;48.106;-1.696;2022-07-23T07:21:42;16.70;99.90
22968;DHT22;11650;48.106;-1.696;2022-07-23T07:24:07;16.80;99.90
22968;DHT22;11650;48.106;-1.696;2022-07-23T07:26:33;17.00;99.90
22968;DHT22;11650;48.106;-1.696;2022-07-23T07:28:59;17.00;99.90
22968;DHT22;11650;48.106;-1.696;2022-07-23T07:31:24;17.00;99.90
22968;DHT22;11650;48.106;-1.696;2022-07-23T07:33:50;17.20;99.90
22968;DHT22;11650;48.106;-1.696;2022-07-23T07:36:15;17.20;99.90
22968;DHT22;11650;48.106;-1.696;2022-07-23T07:38:41;17.30;99.90
22968;DHT22;11650;48.106;-1.696;2022-07-23T07:41:07;17.40;99.90
22968;DHT22;11650;48.106;-1.696;2022-07-23T07:43:35;17.50;99.90
22968;DHT22;11650;48.106;-1.696;2022-07-23T07:46:02;17.70;99.90
22968;DHT22;11650;48.106;-1.696;2022-07-23T07:48:28;17.80;99.90
22968;DHT22;11650;48.106;-1.696;2022-07-23T07:50:54;17.90;99.90
22968;DHT22;11650;48.106;-1.696;2022-07-23T07:53:19;18.00;99.90
22968;DHT22;11650;48.106;-1.696;2022-07-23T07:55:45;17.90;99.90
22968;DHT22;11650;48.106;-1.696;2022-07-23T07:58:11;18.00;99.90
22968;DHT22;11650;48.106;-1.696;2022-07-23T08:00:36;18.10;99.90
22968;DHT22;11650;48.106;-1.696;2022-07-23T08:03:02;18.20;99.90
22968;DHT22;11650;48.106;-1.696;2022-07-23T08:05:29;18.30;99.90
22968;DHT22;11650;48.106;-1.696;2022-07-23T08:07:56;18.60;99.90
22968;DHT22;11650;48.106;-1.696;2022-07-23T08:10:23;18.70;99.90
22968;DHT22;11650;48.106;-1.696;2022-07-23T08:12:53;18.70;99.90
22968;DHT22;11650;48.106;-1.696;2022-07-23T08:15:20;19.10;99.90
22968;DHT22;11650;48.106;-1.696;2022-07-23T08:17:47;19.10;99.90
22968;DHT22;11650;48.106;-1.696;2022-07-23T08:20:14;19.00;99.90
22968;DHT22;11650;48.106;-1.696;2022-07-23T08:23:04;18.80;99.90
22968;DHT22;11650;48.106;-1.696;2022-07-23T08:25:35;18.80;99.90
22968;DHT22;11650;48.106;-1.696;2022-07-23T08:28:04;18.70;99.90
22968;DHT22;11650;48.106;-1.696;2022-07-23T08:30:31;19.10;99.90
22968;DHT22;11650;48.106;-1.696;2022-07-23T08:35:32;20.00;99.90
22968;DHT22;11650;48.106;-1.696;2022-07-23T08:37:59;19.90;99.90
22968;DHT22;11650;48.106;-1.696;2022-07-23T08:40:30;20.20;99.90
22968;DHT22;11650;48.106;-1.696;2022-07-23T08:42:56;20.00;99.90
22968;DHT22;11650;48.106;-1.696;2022-07-23T08:45:23;20.20;99.90
22968;DHT22;11650;48.106;-1.696;2022-07-23T08:47:58;20.20;99.90
22968;DHT22;11650;48.106;-1.696;2022-07-23T08:50:24;20.20;99.90
22968;DHT22;11650;48.106;-1.696;2022-07-23T08:52:51;20.40;99.90
22968;DHT22;11650;48.106;-1.696;2022-07-23T08:55:18;20.50;99.90
22968;DHT22;11650;48.106;-1.696;2022-07-23T08:57:46;20.20;99.90
22968;DHT22;11650;48.106;-1.696;2022-07-23T09:00:13;19.90;99.90
22968;DHT22;11650;48.106;-1.696;2022-07-23T09:02:41;20.00;99.90
22968;DHT22;11650;48.106;-1.696;2022-07-23T09:05:07;20.00;99.90
22968;DHT22;11650;48.106;-1.696;2022-07-23T09:07:34;19.80;99.90
22968;DHT22;11650;48.106;-1.696;2022-07-23T09:10:10;19.80;99.90
22968;DHT22;11650;48.106;-1.696;2022-07-23T09:12:37;19.80;99.90
22968;DHT22;11650;48.106;-1.696;2022-07-23T09:15:05;19.90;99.90
22968;DHT22;11650;48.106;-1.696;2022-07-23T09:17:37;20.50;99.90
22968;DHT22;11650;48.106;-1.696;2022-07-23T09:20:12;20.90;99.90
22968;DHT22;11650;48.106;-1.696;2022-07-23T09:22:38;21.10;99.90
22968;DHT22;11650;48.106;-1.696;2022-07-23T09:28:04;21.30;99.90
22968;DHT22;11650;48.106;-1.696;2022-07-23T09:30:33;21.50;99.90
22968;DHT22;11650;48.106;-1.696;2022-07-23T09:38:11;21.00;99.90
22968;DHT22;11650;48.106;-1.696;2022-07-23T09:40:37;20.80;99.90
22968;DHT22;11650;48.106;-1.696;2022-07-23T09:43:02;20.80;99.90
22968;DHT22;11650;48.106;-1.696;2022-07-23T09:45:28;20.80;99.90
22968;DHT22;11650;48.106;-1.696;2022-07-23T09:48:11;20.50;99.90
22968;DHT22;11650;48.106;-1.696;2022-07-23T09:50:38;20.80;99.90
22968;DHT22;11650;48.106;-1.696;2022-07-23T09:53:04;21.10;99.90
22968;DHT22;11650;48.106;-1.696;2022-07-23T09:55:34;21.20;99.90
22968;DHT22;11650;48.106;-1.696;2022-07-23T09:58:06;21.30;99.90
22968;DHT22;11650;48.106;-1.696;2022-07-23T10:00:38;21.50;99.90
22968;DHT22;11650;48.106;-1.696;2022-07-23T10:03:06;21.80;99.90
22968;DHT22;11650;48.106;-1.696;2022-07-23T10:05:33;21.80;99.90
22968;DHT22;11650;48.106;-1.696;2022-07-23T10:08:02;21.60;99.90
22968;DHT22;11650;48.106;-1.696;2022-07-23T10:10:28;22.00;99.90
22968;DHT22;11650;48.106;-1.696;2022-07-23T10:12:56;22.30;99.90
22968;DHT22;11650;48.106;-1.696;2022-07-23T10:15:21;22.30;99.90
22968;DHT22;11650;48.106;-1.696;2022-07-23T10:17:48;22.40;99.90
22968;DHT22;11650;48.106;-1.696;2022-07-23T10:20:14;22.50;99.90
22968;DHT22;11650;48.106;-1.696;2022-07-23T10:22:50;22.10;99.90
22968;DHT22;11650;48.106;-1.696;2022-07-23T10:25:32;22.00;99.90
22968;DHT22;11650;48.106;-1.696;2022-07-23T10:31:02;22.20;99.90
22968;DHT22;11650;48.106;-1.696;2022-07-23T10:33:50;22.20;99.90
22968;DHT22;11650;48.106;-1.696;2022-07-23T10:39:15;22.60;99.90
22968;DHT22;11650;48.106;-1.696;2022-07-23T10:41:40;22.70;99.90
22968;DHT22;11650;48.106;-1.696;2022-07-23T10:44:10;22.50;99.90
22968;DHT22;11650;48.106;-1.696;2022-07-23T10:46:53;22.80;99.90
22968;DHT22;11650;48.106;-1.696;2022-07-23T10:54:39;23.40;99.90
22968;DHT22;11650;48.106;-1.696;2022-07-23T10:57:06;23.30;99.90
22968;DHT22;11650;48.106;-1.696;2022-07-23T11:02:35;23.30;99.90
22968;DHT22;11650;48.106;-1.696;2022-07-23T11:07:31;23.60;99.90
22968;DHT22;11650;48.106;-1.696;2022-07-23T11:09:57;23.70;99.90
22968;DHT22;11650;48.106;-1.696;2022-07-23T11:15:08;23.50;99.90
22968;DHT22;11650;48.106;-1.696;2022-07-23T11:25:31;24.10;99.90
22968;DHT22;11650;48.106;-1.696;2022-07-23T11:28:17;24.10;99.90
22968;DHT22;11650;48.106;-1.696;2022-07-23T11:30:47;23.90;99.90
22968;DHT22;11650;48.106;-1.696;2022-07-23T11:35:40;24.80;99.90
22968;DHT22;11650;48.106;-1.696;2022-07-23T11:38:11;24.80;99.90
22968;DHT22;11650;48.106;-1.696;2022-07-23T11:40:39;24.50;99.90
22968;DHT22;11650;48.106;-1.696;2022-07-23T11:43:08;24.80;99.90
22968;DHT22;11650;48.106;-1.696;2022-07-23T11:45:57;25.00;99.90
22968;DHT22;11650;48.106;-1.696;2022-07-23T11:48:23;25.20;99.90
22968;DHT22;11650;48.106;-1.696;2022-07-23T11:50:49;25.50;99.90
22968;DHT22;11650;48.106;-1.696;2022-07-23T11:53:26;25.40;99.90
22968;DHT22;11650;48.106;-1.696;2022-07-23T11:55:52;25.90;99.90
22968;DHT22;11650;48.106;-1.696;2022-07-23T11:58:18;25.50;99.90
22968;DHT22;11650;48.106;-1.696;2022-07-23T12:00:44;25.30;99.90
22968;DHT22;11650;48.106;-1.696;2022-07-23T12:03:10;25.10;99.90
22968;DHT22;11650;48.106;-1.696;2022-07-23T12:05:37;25.00;99.90
22968;DHT22;11650;48.106;-1.696;2022-07-23T12:08:05;25.10;99.90
22968;DHT22;11650;48.106;-1.696;2022-07-23T12:13:03;25.40;99.90
22968;DHT22;11650;48.106;-1.696;2022-07-23T12:15:41;25.80;99.90
22968;DHT22;11650;48.106;-1.696;2022-07-23T12:18:09;26.20;99.90
22968;DHT22;11650;48.106;-1.696;2022-07-23T12:20:43;26.60;99.90
22968;DHT22;11650;48.106;-1.696;2022-07-23T12:23:11;27.20;99.90
22968;DHT22;11650;48.106;-1.696;2022-07-23T12:25:40;27.10;99.90
22968;DHT22;11650;48.106;-1.696;2022-07-23T12:28:10;26.70;99.90
22968;DHT22;11650;48.106;-1.696;2022-07-23T12:33:10;26.80;99.90
22968;DHT22;11650;48.106;-1.696;2022-07-23T12:35:45;26.80;99.90
22968;DHT22;11650;48.106;-1.696;2022-07-23T12:38:17;27.20;99.90
22968;DHT22;11650;48.106;-1.696;2022-07-23T12:43:27;26.80;99.90
22968;DHT22;11650;48.106;-1.696;2022-07-23T12:46:02;27.30;99.90
22968;DHT22;11650;48.106;-1.696;2022-07-23T12:48:33;27.90;99.90
22968;DHT22;11650;48.106;-1.696;2022-07-23T12:51:16;27.90;99.90
22968;DHT22;11650;48.106;-1.696;2022-07-23T12:53:53;27.10;99.90
22968;DHT22;11650;48.106;-1.696;2022-07-23T12:56:26;26.90;99.90
22968;DHT22;11650;48.106;-1.696;2022-07-23T12:58:54;27.30;99.90
22968;DHT22;11650;48.106;-1.696;2022-07-23T13:06:26;28.00;98.90
22968;DHT22;11650;48.106;-1.696;2022-07-23T13:08:51;27.90;99.10
22968;DHT22;11650;48.106;-1.696;2022-07-23T13:11:17;28.10;98.60
22968;DHT22;11650;48.106;-1.696;2022-07-23T13:13:43;28.10;98.30
22968;DHT22;11650;48.106;-1.696;2022-07-23T13:16:09;28.20;97.20
22968;DHT22;11650;48.106;-1.696;2022-07-23T13:18:34;27.70;97.80
22968;DHT22;11650;48.106;-1.696;2022-07-23T13:21:00;27.70;97.70
22968;DHT22;11650;48.106;-1.696;2022-07-23T13:23:26;28.30;97.80
22968;DHT22;11650;48.106;-1.696;2022-07-23T13:25:52;29.30;96.70
22968;DHT22;11650;48.106;-1.696;2022-07-23T13:28:19;29.50;95.60
22968;DHT22;11650;48.106;-1.696;2022-07-23T13:30:48;29.90;95.30
22968;DHT22;11650;48.106;-1.696;2022-07-23T13:33:16;30.20;95.40
22968;DHT22;11650;48.106;-1.696;2022-07-23T13:35:42;30.40;94.70
22968;DHT22;11650;48.106;-1.696;2022-07-23T13:38:08;30.70;94.20
22968;DHT22;11650;48.106;-1.696;2022-07-23T13:40:39;31.00;93.40
22968;DHT22;11650;48.106;-1.696;2022-07-23T13:43:11;30.40;93.50
22968;DHT22;11650;48.106;-1.696;2022-07-23T13:45:37;30.20;93.90
22968;DHT22;11650;48.106;-1.696;2022-07-23T13:48:04;30.30;93.40
22968;DHT22;11650;48.106;-1.696;2022-07-23T13:50:30;31.10;92.70
22968;DHT22;11650;48.106;-1.696;2022-07-23T13:52:56;31.80;92.40
22968;DHT22;11650;48.106;-1.696;2022-07-23T13:55:22;32.00;91.60
22968;DHT22;11650;48.106;-1.696;2022-07-23T13:57:48;32.10;91.50
22968;DHT22;11650;48.106;-1.696;2022-07-23T14:00:14;32.20;91.10
22968;DHT22;11650;48.106;-1.696;2022-07-23T14:02:40;32.30;90.60
22968;DHT22;11650;48.106;-1.696;2022-07-23T14:05:08;32.20;90.80
22968;DHT22;11650;48.106;-1.696;2022-07-23T14:07:35;32.20;90.50
22968;DHT22;11650;48.106;-1.696;2022-07-23T14:10:03;32.90;89.70
22968;DHT22;11650;48.106;-1.696;2022-07-23T14:12:29;34.10;87.30
22968;DHT22;11650;48.106;-1.696;2022-07-23T14:14:55;33.20;87.00
22968;DHT22;11650;48.106;-1.696;2022-07-23T14:17:20;33.30;87.90
22968;DHT22;11650;48.106;-1.696;2022-07-23T14:19:46;33.00;88.40
22968;DHT22;11650;48.106;-1.696;2022-07-23T14:22:12;33.20;88.60
22968;DHT22;11650;48.106;-1.696;2022-07-23T14:24:37;33.50;86.80
22968;DHT22;11650;48.106;-1.696;2022-07-23T14:27:04;33.10;87.60
22968;DHT22;11650;48.106;-1.696;2022-07-23T14:29:30;32.80;86.70
22968;DHT22;11650;48.106;-1.696;2022-07-23T14:31:57;33.00;87.60
22968;DHT22;11650;48.106;-1.696;2022-07-23T14:34:22;33.80;86.00
22968;DHT22;11650;48.106;-1.696;2022-07-23T14:36:48;33.50;86.30
22968;DHT22;11650;48.106;-1.696;2022-07-23T14:39:14;33.80;86.30
22968;DHT22;11650;48.106;-1.696;2022-07-23T14:41:39;34.20;85.50
22968;DHT22;11650;48.106;-1.696;2022-07-23T14:44:06;35.10;83.80
22968;DHT22;11650;48.106;-1.696;2022-07-23T14:46:31;35.90;81.80
22968;DHT22;11650;48.106;-1.696;2022-07-23T14:48:57;35.20;82.10
22968;DHT22;11650;48.106;-1.696;2022-07-23T14:51:23;34.90;81.80
22968;DHT22;11650;48.106;-1.696;2022-07-23T14:53:48;35.10;82.00
22968;DHT22;11650;48.106;-1.696;2022-07-23T14:56:14;34.80;82.20
22968;DHT22;11650;48.106;-1.696;2022-07-23T14:58:41;34.30;82.10
22968;DHT22;11650;48.106;-1.696;2022-07-23T15:01:07;34.90;82.00
22968;DHT22;11650;48.106;-1.696;2022-07-23T15:03:33;35.10;82.00
22968;DHT22;11650;48.106;-1.696;2022-07-23T15:05:59;35.40;80.30
22968;DHT22;11650;48.106;-1.696;2022-07-23T15:08:25;35.90;79.60
22968;DHT22;11650;48.106;-1.696;2022-07-23T15:10:51;36.30;79.60
22968;DHT22;11650;48.106;-1.696;2022-07-23T15:13:17;36.50;78.70
22968;DHT22;11650;48.106;-1.696;2022-07-23T15:15:43;36.80;78.40
22968;DHT22;11650;48.106;-1.696;2022-07-23T15:18:09;36.10;79.00
22968;DHT22;11650;48.106;-1.696;2022-07-23T15:20:35;35.80;78.70
22968;DHT22;11650;48.106;-1.696;2022-07-23T15:23:06;35.90;79.10
22968;DHT22;11650;48.106;-1.696;2022-07-23T15:25:32;36.70;77.70
22968;DHT22;11650;48.106;-1.696;2022-07-23T15:27:58;36.50;77.40
22968;DHT22;11650;48.106;-1.696;2022-07-23T15:30:25;36.50;77.80
22968;DHT22;11650;48.106;-1.696;2022-07-23T15:32:51;36.90;78.20
22968;DHT22;11650;48.106;-1.696;2022-07-23T15:35:17;36.90;77.10
22968;DHT22;11650;48.106;-1.696;2022-07-23T15:37:43;38.10;76.10
22968;DHT22;11650;48.106;-1.696;2022-07-23T15:40:09;37.50;75.70
22968;DHT22;11650;48.106;-1.696;2022-07-23T15:42:35;37.30;74.60
22968;DHT22;11650;48.106;-1.696;2022-07-23T15:45:01;37.50;74.50
22968;DHT22;11650;48.106;-1.696;2022-07-23T15:47:27;38.00;73.50
22968;DHT22;11650;48.106;-1.696;2022-07-23T15:49:52;37.90;73.80
22968;DHT22;11650;48.106;-1.696;2022-07-23T15:52:18;39.30;72.90
22968;DHT22;11650;48.106;-1.696;2022-07-23T15:54:44;39.20;72.60
22968;DHT22;11650;48.106;-1.696;2022-07-23T15:57:09;38.20;73.80
22968;DHT22;11650;48.106;-1.696;2022-07-23T15:59:35;37.60;74.30
22968;DHT22;11650;48.106;-1.696;2022-07-23T16:02:01;38.20;74.30
22968;DHT22;11650;48.106;-1.696;2022-07-23T16:04:27;38.50;73.20
22968;DHT22;11650;48.106;-1.696;2022-07-23T16:06:53;38.50;74.20